sensor_id;sensor_type;location;lat;lon;timestamp;pressure;altitude;pressure_sealevel;temperature;humidity
46836;BME280;32573;51.290;6.926;2023-07-13T00:01:21;100077.78;;;19.79;81.83
46836;BME280;32573;51.290;6.926;2023-07-13T00:03:51;100075.19;;;19.73;81.83
46836;BME280;32573;51.290;6.926;2023-07-13T00:06:20;100077.03;;;19.68;82.20
46836;BME280;32573;51.290;6.926;2023-07-13T00:08:48;100078.81;;;19.63;82.17
46836;BME280;32573;51.290;6.926;2023-07-13T00:11:19;100079.75;;;19.58;82.45
46836;BME280;32573;51.290;6.926;2023-07-13T00:13:47;100083.31;;;19.54;82.84
46836;BME280;32573;51.290;6.926;2023-07-13T00:16:16;100081.56;;;19.52;82.77
46836;BME280;32573;51.290;6.926;2023-07-13T00:18:46;100084.25;;;19.49;83.01
46836;BME280;32573;51.290;6.926;2023-07-13T00:21:15;100084.31;;;19.44;82.73
46836;BME280;32573;51.290;6.926;2023-07-13T00:23:44;100082.59;;;19.40;83.26
46836;BME280;32573;51.290;6.926;2023-07-13T00:26:13;100085.28;;;19.37;83.43
46836;BME280;32573;51.290;6.926;2023-07-13T00:28:43;100075.56;;;19.33;83.27
46836;BME280;32573;51.290;6.926;2023-07-13T00:31:13;100075.63;;;19.28;83.48
46836;BME280;32573;51.290;6.926;2023-07-13T00:33:43;100079.22;;;19.23;83.42
46836;BME280;32573;51.290;6.926;2023-07-13T00:36:12;100079.25;;;19.20;83.98
46836;BME280;32573;51.290;6.926;2023-07-13T00:38:42;100086.34;;;19.14;83.95
46836;BME280;32573;51.290;6.926;2023-07-13T00:41:11;100083.72;;;19.11;84.31
46836;BME280;32573;51.290;6.926;2023-07-13T00:43:40;100079.34;;;19.07;84.20
46836;BME280;32573;51.290;6.926;2023-07-13T00:46:21;100084.69;;;19.03;84.88
46836;BME280;32573;51.290;6.926;2023-07-13T00:48:51;100082.97;;;18.97;84.48
46836;BME280;32573;51.290;6.926;2023-07-13T00:51:25;100083.88;;;18.93;84.76
46836;BME280;32573;51.290;6.926;2023-07-13T00:53:56;100085.66;;;18.91;86.66
46836;BME280;32573;51.290;6.926;2023-07-13T00:56:27;100074.19;;;18.86;84.51
46836;BME280;32573;51.290;6.926;2023-07-13T00:58:57;100075.09;;;18.83;84.79
46836;BME280;32573;51.290;6.926;2023-07-13T01:01:27;100073.34;;;18.79;85.01
46836;BME280;32573;51.290;6.926;2023-07-13T01:03:56;100082.22;;;18.75;85.07
46836;BME280;32573;51.290;6.926;2023-07-13T01:06:25;100078.69;;;18.71;85.35
46836;BME280;32573;51.290;6.926;2023-07-13T01:08:54;100077.81;;;18.66;85.22
46836;BME280;32573;51.290;6.926;2023-07-13T01:11:25;100073.44;;;18.64;86.03
46836;BME280;32573;51.290;6.926;2023-07-13T01:13:56;100081.41;;;18.62;85.51
46836;BME280;32573;51.290;6.926;2023-07-13T01:16:26;100076.09;;;18.59;85.61
46836;BME280;32573;51.290;6.926;2023-07-13T01:18:57;100070.81;;;18.56;85.70
46836;BME280;32573;51.290;6.926;2023-07-13T01:21:29;100065.56;;;18.53;85.70
46836;BME280;32573;51.290;6.926;2023-07-13T01:23:59;100079.72;;;18.50;85.97
46836;BME280;32573;51.290;6.926;2023-07-13T01:26:28;100084.13;;;18.48;85.82
46836;BME280;32573;51.290;6.926;2023-07-13T01:28:58;100084.16;;;18.45;85.88
46836;BME280;32573;51.290;6.926;2023-07-13T01:31:27;100084.16;;;18.44;86.05
46836;BME280;32573;51.290;6.926;2023-07-13T01:33:55;100078.88;;;18.42;86.17
46836;BME280;32573;51.290;6.926;2023-07-13T01:36:25;100081.53;;;18.41;86.29
46836;BME280;32573;51.290;6.926;2023-07-13T01:38:55;100084.19;;;18.38;86.45
46836;BME280;32573;51.290;6.926;2023-07-13T01:41:23;100077.13;;;18.33;86.61
46836;BME280;32573;51.290;6.926;2023-07-13T01:43:53;100075.38;;;18.31;86.77
46836;BME280;32573;51.290;6.926;2023-07-13T01:46:22;100074.53;;;18.27;86.71
46836;BME280;32573;51.290;6.926;2023-07-13T01:48:51;100077.19;;;18.26;86.99
46836;BME280;32573;51.290;6.926;2023-07-13T01:51:20;100088.69;;;18.23;86.94
46836;BME280;32573;51.290;6.926;2023-07-13T01:53:49;100088.69;;;18.20;87.15
46836;BME280;32573;51.290;6.926;2023-07-13T01:56:19;100086.94;;;18.16;87.27
46836;BME280;32573;51.290;6.926;2023-07-13T01:58:48;100095.78;;;18.15;87.46
46836;BME280;32573;51.290;6.926;2023-07-13T02:01:17;100092.25;;;18.13;87.60
46836;BME280;32573;51.290;6.926;2023-07-13T02:03:46;100091.38;;;18.11;87.71
46836;BME280;32573;51.290;6.926;2023-07-13T02:06:15;100090.50;;;18.09;87.78
46836;BME280;32573;51.290;6.926;2023-07-13T02:08:43;100095.81;;;18.06;87.85
46836;BME280;32573;51.290;6.926;2023-07-13T02:11:12;100092.28;;;18.04;87.89
46836;BME280;32573;51.290;6.926;2023-07-13T02:13:42;100088.75;;;18.02;88.50
46836;BME280;32573;51.290;6.926;2023-07-13T02:16:10;100092.28;;;17.99;88.51
46836;BME280;32573;51.290;6.926;2023-07-13T02:18:40;100086.16;;;17.97;88.50
46836;BME280;32573;51.290;6.926;2023-07-13T02:21:08;100090.53;;;17.97;88.70
46836;BME280;32573;51.290;6.926;2023-07-13T02:23:40;100095.00;;;17.95;88.89
46836;BME280;32573;51.290;6.926;2023-07-13T02:26:08;100094.97;;;17.93;88.95
46836;BME280;32573;51.290;6.926;2023-07-13T02:28:37;100091.44;;;17.91;88.85
46836;BME280;32573;51.290;6.926;2023-07-13T02:31:09;100098.50;;;17.89;89.31
46836;BME280;32573;51.290;6.926;2023-07-13T02:33:38;100094.09;;;17.86;89.36
46836;BME280;32573;51.290;6.926;2023-07-13T02:36:07;100095.00;;;17.84;89.52
46836;BME280;32573;51.290;6.926;2023-07-13T02:38:37;100102.06;;;17.82;89.76
46836;BME280;32573;51.290;6.926;2023-07-13T02:41:07;100093.22;;;17.78;89.67
46836;BME280;32573;51.290;6.926;2023-07-13T02:43:37;100093.25;;;17.75;89.78
46836;BME280;32573;51.290;6.926;2023-07-13T02:46:10;100097.66;;;17.73;90.36
46836;BME280;32573;51.290;6.926;2023-07-13T02:48:39;100090.63;;;17.67;90.13
46836;BME280;32573;51.290;6.926;2023-07-13T02:51:08;100099.44;;;17.65;90.22
46836;BME280;32573;51.290;6.926;2023-07-13T02:53:36;100102.97;;;17.64;90.61
46836;BME280;32573;51.290;6.926;2023-07-13T02:56:05;100105.63;;;17.62;90.89
46836;BME280;32573;51.290;6.926;2023-07-13T02:58:34;100105.63;;;17.61;90.84
46836;BME280;32573;51.290;6.926;2023-07-13T03:01:07;100110.06;;;17.57;91.05
46836;BME280;32573;51.290;6.926;2023-07-13T03:03:38;100107.38;;;17.54;91.47
46836;BME280;32573;51.290;6.926;2023-07-13T03:06:07;100112.69;;;17.53;91.25
46836;BME280;32573;51.290;6.926;2023-07-13T03:08:45;100106.53;;;17.51;91.61
46836;BME280;32573;51.290;6.926;2023-07-13T03:11:16;100099.47;;;17.48;91.63
46836;BME280;32573;51.290;6.926;2023-07-13T03:13:49;100103.88;;;17.46;91.84
46836;BME280;32573;51.290;6.926;2023-07-13T03:16:19;100107.41;;;17.43;92.05
46836;BME280;32573;51.290;6.926;2023-07-13T03:18:51;100113.59;;;17.42;92.27
46836;BME280;32573;51.290;6.926;2023-07-13T03:21:20;100109.16;;;17.41;92.44
46836;BME280;32573;51.290;6.926;2023-07-13T03:23:48;100114.47;;;17.40;92.78
46836;BME280;32573;51.290;6.926;2023-07-13T03:26:19;100110.94;;;17.39;92.86
46836;BME280;32573;51.290;6.926;2023-07-13T03:28:48;100115.38;;;17.37;92.73
46836;BME280;32573;51.290;6.926;2023-07-13T03:31:24;100117.13;;;17.35;93.32
46836;BME280;32573;51.290;6.926;2023-07-13T03:33:55;100123.28;;;17.34;93.33
46836;BME280;32573;51.290;6.926;2023-07-13T03:36:30;100118.88;;;17.33;93.35
46836;BME280;32573;51.290;6.926;2023-07-13T03:39:04;100121.53;;;17.33;93.31
46836;BME280;32573;51.290;6.926;2023-07-13T03:41:46;100119.75;;;17.34;93.63
46836;BME280;32573;51.290;6.926;2023-07-13T03:44:15;100120.63;;;17.34;93.86
46836;BME280;32573;51.290;6.926;2023-07-13T03:46:47;100127.72;;;17.35;94.09
46836;BME280;32573;51.290;6.926;2023-07-13T03:49:17;100127.69;;;17.37;94.25
46836;BME280;32573;51.290;6.926;2023-07-13T03:51:46;100133.88;;;17.37;94.46
46836;BME280;32573;51.290;6.926;2023-07-13T03:54:17;100137.38;;;17.39;94.49
46836;BME280;32573;51.290;6.926;2023-07-13T03:56:46;100145.34;;;17.41;94.47
46836;BME280;32573;51.290;6.926;2023-07-13T03:59:15;100148.88;;;17.40;94.63
46836;BME280;32573;51.290;6.926;2023-07-13T04:01:45;100150.63;;;17.39;94.81
46836;BME280;32573;51.290;6.926;2023-07-13T04:04:14;100149.75;;;17.40;94.88
46836;BME280;32573;51.290;6.926;2023-07-13T04:06:45;100155.06;;;17.40;95.45
46836;BME280;32573;51.290;6.926;2023-07-13T04:09:13;100160.34;;;17.43;95.43
46836;BME280;32573;51.290;6.926;2023-07-13T04:11:42;100159.44;;;17.44;95.64
46836;BME280;32573;51.290;6.926;2023-07-13T04:14:11;100157.69;;;17.46;95.92
46836;BME280;32573;51.290;6.926;2023-07-13T04:16:39;100159.47;;;17.48;96.10
46836;BME280;32573;51.290;6.926;2023-07-13T04:19:08;100156.78;;;17.49;96.25
46836;BME280;32573;51.290;6.926;2023-07-13T04:21:37;100161.22;;;17.52;96.40
46836;BME280;32573;51.290;6.926;2023-07-13T04:24:07;100160.31;;;17.54;96.45
46836;BME280;32573;51.290;6.926;2023-07-13T04:26:36;100159.44;;;17.57;96.77
46836;BME280;32573;51.290;6.926;2023-07-13T04:29:06;100160.31;;;17.59;96.78
46836;BME280;32573;51.290;6.926;2023-07-13T04:31:35;100165.59;;;17.62;96.80
46836;BME280;32573;51.290;6.926;2023-07-13T04:34:03;100162.06;;;17.64;97.17
46836;BME280;32573;51.290;6.926;2023-07-13T04:36:32;100158.53;;;17.67;97.34
46836;BME280;32573;51.290;6.926;2023-07-13T04:39:06;100163.84;;;17.68;97.49
46836;BME280;32573;51.290;6.926;2023-07-13T04:41:36;100166.50;;;17.73;97.63
46836;BME280;32573;51.290;6.926;2023-07-13T04:44:04;100164.72;;;17.75;97.46
46836;BME280;32573;51.290;6.926;2023-07-13T04:46:33;100173.56;;;17.77;97.85
46836;BME280;32573;51.290;6.926;2023-07-13T04:49:03;100168.28;;;17.80;97.95
46836;BME280;32573;51.290;6.926;2023-07-13T04:51:32;100168.28;;;17.83;98.09
46836;BME280;32573;51.290;6.926;2023-07-13T04:54:00;100162.97;;;17.86;98.16
46836;BME280;32573;51.290;6.926;2023-07-13T04:56:33;100165.59;;;17.89;98.50
46836;BME280;32573;51.290;6.926;2023-07-13T04:59:01;100164.72;;;17.91;98.45
46836;BME280;32573;51.290;6.926;2023-07-13T05:01:30;100162.97;;;17.93;98.72
46836;BME280;32573;51.290;6.926;2023-07-13T05:03:59;100161.22;;;17.95;98.77
46836;BME280;32573;51.290;6.926;2023-07-13T05:06:28;100165.63;;;17.97;99.00
46836;BME280;32573;51.290;6.926;2023-07-13T05:08:57;100173.53;;;17.99;99.03
46836;BME280;32573;51.290;6.926;2023-07-13T05:11:26;100175.31;;;18.00;98.90
46836;BME280;32573;51.290;6.926;2023-07-13T05:13:56;100190.31;;;18.02;99.48
46836;BME280;32573;51.290;6.926;2023-07-13T05:16:25;100185.00;;;18.04;99.41
46836;BME280;32573;51.290;6.926;2023-07-13T05:18:53;100186.78;;;18.05;99.44
46836;BME280;32573;51.290;6.926;2023-07-13T05:21:22;100177.94;;;18.07;99.83
46836;BME280;32573;51.290;6.926;2023-07-13T05:23:51;100180.56;;;18.09;99.75
46836;BME280;32573;51.290;6.926;2023-07-13T05:26:19;100184.09;;;18.11;100.00
46836;BME280;32573;51.290;6.926;2023-07-13T05:28:49;100185.00;;;18.15;100.00
46836;BME280;32573;51.290;6.926;2023-07-13T05:31:19;100193.81;;;18.18;100.00
46836;BME280;32573;51.290;6.926;2023-07-13T05:33:47;100200.88;;;18.21;100.00
46836;BME280;32573;51.290;6.926;2023-07-13T05:36:16;100194.69;;;18.23;100.00
46836;BME280;32573;51.290;6.926;2023-07-13T05:38:44;100192.00;;;18.26;100.00
46836;BME280;32573;51.290;6.926;2023-07-13T05:41:13;100204.38;;;18.29;100.00
46836;BME280;32573;51.290;6.926;2023-07-13T05:43:41;100200.81;;;18.31;100.00
46836;BME280;32573;51.290;6.926;2023-07-13T05:46:10;100207.91;;;18.32;100.00
46836;BME280;32573;51.290;6.926;2023-07-13T05:48:40;100210.53;;;18.36;100.00
46836;BME280;32573;51.290;6.926;2023-07-13T05:51:09;100215.81;;;18.39;100.00
46836;BME280;32573;51.290;6.926;2023-07-13T05:53:38;100219.34;;;18.41;100.00
46836;BME280;32573;51.290;6.926;2023-07-13T05:56:07;100212.28;;;18.43;100.00
46836;BME280;32573;51.290;6.926;2023-07-13T05:58:36;100211.41;;;18.42;100.00
46836;BME280;32573;51.290;6.926;2023-07-13T06:01:07;100212.28;;;18.43;100.00
46836;BME280;32573;51.290;6.926;2023-07-13T06:03:37;100213.16;;;18.43;100.00
46836;BME280;32573;51.290;6.926;2023-07-13T06:06:09;100216.69;;;18.44;100.00
46836;BME280;32573;51.290;6.926;2023-07-13T06:08:38;100216.69;;;18.44;100.00
46836;BME280;32573;51.290;6.926;2023-07-13T06:11:09;100229.94;;;18.45;100.00
46836;BME280;32573;51.290;6.926;2023-07-13T06:13:38;100227.28;;;18.47;100.00
46836;BME280;32573;51.290;6.926;2023-07-13T06:16:07;100226.41;;;18.48;100.00
46836;BME280;32573;51.290;6.926;2023-07-13T06:18:36;100237.00;;;18.48;100.00
46836;BME280;32573;51.290;6.926;2023-07-13T06:21:08;100232.59;;;18.50;100.00
46836;BME280;32573;51.290;6.926;2023-07-13T06:23:38;100231.69;;;18.49;100.00
46836;BME280;32573;51.290;6.926;2023-07-13T06:26:07;100236.97;;;18.49;100.00
46836;BME280;32573;51.290;6.926;2023-07-13T06:28:36;100238.75;;;18.52;100.00
46836;BME280;32573;51.290;6.926;2023-07-13T06:31:08;100244.06;;;18.55;100.00
46836;BME280;32573;51.290;6.926;2023-07-13T06:33:38;100242.28;;;18.60;100.00
46836;BME280;32573;51.290;6.926;2023-07-13T06:36:09;100247.56;;;18.63;100.00
46836;BME280;32573;51.290;6.926;2023-07-13T06:38:38;100245.78;;;18.65;100.00
46836;BME280;32573;51.290;6.926;2023-07-13T06:41:07;100251.09;;;18.65;100.00
46836;BME280;32573;51.290;6.926;2023-07-13T06:43:36;100249.31;;;18.66;100.00
46836;BME280;32573;51.290;6.926;2023-07-13T06:46:05;100249.31;;;18.64;100.00
46836;BME280;32573;51.290;6.926;2023-07-13T06:48:34;100245.78;;;18.65;100.00
46836;BME280;32573;51.290;6.926;2023-07-13T06:51:03;100254.63;;;18.67;100.00
46836;BME280;32573;51.290;6.926;2023-07-13T06:53:33;100250.19;;;18.71;100.00
46836;BME280;32573;51.290;6.926;2023-07-13T06:56:02;100253.72;;;18.78;100.00
46836;BME280;32573;51.290;6.926;2023-07-13T06:58:30;100259.03;;;18.82;100.00
46836;BME280;32573;51.290;6.926;2023-07-13T07:00:59;100260.75;;;18.88;100.00
46836;BME280;32573;51.290;6.926;2023-07-13T07:03:28;100254.53;;;18.93;100.00
46836;BME280;32573;51.290;6.926;2023-07-13T07:06:00;100257.16;;;18.98;100.00
46836;BME280;32573;51.290;6.926;2023-07-13T07:08:29;100264.22;;;18.99;100.00
46836;BME280;32573;51.290;6.926;2023-07-13T07:10:59;100268.63;;;19.03;100.00
46836;BME280;32573;51.290;6.926;2023-07-13T07:13:27;100265.09;;;19.04;100.00
46836;BME280;32573;51.290;6.926;2023-07-13T07:15:57;100265.97;;;19.08;100.00
46836;BME280;32573;51.290;6.926;2023-07-13T07:18:27;100266.81;;;19.11;100.00
46836;BME280;32573;51.290;6.926;2023-07-13T07:20:55;100259.72;;;19.16;100.00
46836;BME280;32573;51.290;6.926;2023-07-13T07:23:24;100263.25;;;19.18;100.00
46836;BME280;32573;51.290;6.926;2023-07-13T07:25:53;100272.97;;;19.21;100.00
46836;BME280;32573;51.290;6.926;2023-07-13T07:28:23;100267.66;;;19.21;100.00
46836;BME280;32573;51.290;6.926;2023-07-13T07:30:56;100270.28;;;19.26;100.00
46836;BME280;32573;51.290;6.926;2023-07-13T07:33:27;100267.59;;;19.30;100.00
46836;BME280;32573;51.290;6.926;2023-07-13T07:35:56;100263.16;;;19.34;100.00
46836;BME280;32573;51.290;6.926;2023-07-13T07:38:27;100264.94;;;19.33;100.00
46836;BME280;32573;51.290;6.926;2023-07-13T07:40:56;100264.91;;;19.38;100.00
46836;BME280;32573;51.290;6.926;2023-07-13T07:43:29;100274.59;;;19.44;100.00
46836;BME280;32573;51.290;6.926;2023-07-13T07:45:58;100264.84;;;19.44;100.00
46836;BME280;32573;51.290;6.926;2023-07-13T07:48:29;100270.16;;;19.46;100.00
46836;BME280;32573;51.290;6.926;2023-07-13T07:50:58;100265.72;;;19.48;100.00
46836;BME280;32573;51.290;6.926;2023-07-13T07:53:26;100271.91;;;19.48;100.00
46836;BME280;32573;51.290;6.926;2023-07-13T07:55:57;100275.44;;;19.50;100.00
46836;BME280;32573;51.290;6.926;2023-07-13T07:58:47;100268.34;;;19.49;100.00
46836;BME280;32573;51.290;6.926;2023-07-13T08:01:18;100276.34;;;19.48;100.00
46836;BME280;32573;51.290;6.926;2023-07-13T08:03:49;100279.00;;;19.46;100.00
46836;BME280;32573;51.290;6.926;2023-07-13T08:06:21;100273.66;;;19.49;100.00
46836;BME280;32573;51.290;6.926;2023-07-13T08:08:53;100276.34;;;19.48;100.00
46836;BME280;32573;51.290;6.926;2023-07-13T08:11:21;100268.34;;;19.49;100.00
46836;BME280;32573;51.290;6.926;2023-07-13T08:13:54;100269.22;;;19.51;100.00
46836;BME280;32573;51.290;6.926;2023-07-13T08:16:23;100275.44;;;19.50;100.00
46836;BME280;32573;51.290;6.926;2023-07-13T08:18:52;100266.56;;;19.51;100.00
46836;BME280;32573;51.290;6.926;2023-07-13T08:21:20;100271.84;;;19.54;100.00
46836;BME280;32573;51.290;6.926;2023-07-13T08:23:49;100266.50;;;19.60;100.00
46836;BME280;32573;51.290;6.926;2023-07-13T08:26:18;100256.78;;;19.67;100.00
46836;BME280;32573;51.290;6.926;2023-07-13T08:28:46;100253.19;;;19.73;100.00
46836;BME280;32573;51.290;6.926;2023-07-13T08:31:16;100260.22;;;19.78;100.00
46836;BME280;32573;51.290;6.926;2023-07-13T08:33:45;100259.25;;;19.87;100.00
46836;BME280;32573;51.290;6.926;2023-07-13T08:36:13;100261.84;;;19.95;100.00
46836;BME280;32573;51.290;6.926;2023-07-13T08:38:42;100254.69;;;20.03;100.00
46836;BME280;32573;51.290;6.926;2023-07-13T08:41:12;100258.13;;;20.11;100.00
46836;BME280;32573;51.290;6.926;2023-07-13T08:43:42;100264.25;;;20.21;100.00
46836;BME280;32573;51.290;6.926;2023-07-13T08:46:17;100259.75;;;20.26;100.00
46836;BME280;32573;51.290;6.926;2023-07-13T08:48:51;100262.44;;;20.26;100.00
46836;BME280;32573;51.290;6.926;2023-07-13T08:51:28;100262.47;;;20.23;100.00
46836;BME280;32573;51.290;6.926;2023-07-13T08:54:02;100248.25;;;20.24;100.00
46836;BME280;32573;51.290;6.926;2023-07-13T08:56:32;100250.88;;;20.30;100.00
46836;BME280;32573;51.290;6.926;2023-07-13T08:59:04;100257.03;;;20.35;100.00
46836;BME280;32573;51.290;6.926;2023-07-13T09:01:47;100256.06;;;20.41;100.00
46836;BME280;32573;51.290;6.926;2023-07-13T09:04:23;100247.16;;;20.43;100.00
46836;BME280;32573;51.290;6.926;2023-07-13T09:07:05;100245.38;;;20.45;100.00
46836;BME280;32573;51.290;6.926;2023-07-13T09:09:49;100248.00;;;20.48;100.00
46836;BME280;32573;51.290;6.926;2023-07-13T09:12:28;100255.97;;;20.55;100.00
46836;BME280;32573;51.290;6.926;2023-07-13T09:15:01;100250.56;;;20.61;100.00
46836;BME280;32573;51.290;6.926;2023-07-13T09:17:41;100256.75;;;20.63;100.00
46836;BME280;32573;51.290;6.926;2023-07-13T09:20:19;100254.91;;;20.66;100.00
46836;BME280;32573;51.290;6.926;2023-07-13T09:22:50;100261.09;;;20.70;100.00
46836;BME280;32573;51.290;6.926;2023-07-13T09:25:24;100269.03;;;20.75;100.00
46836;BME280;32573;51.290;6.926;2023-07-13T09:27:58;100263.66;;;20.79;100.00
46836;BME280;32573;51.290;6.926;2023-07-13T09:30:34;100276.00;;;20.83;100.00
46836;BME280;32573;51.290;6.926;2023-07-13T09:33:07;100272.41;;;20.87;100.00
46836;BME280;32573;51.290;6.926;2023-07-13T09:35:36;100270.56;;;20.91;100.00
46836;BME280;32573;51.290;6.926;2023-07-13T09:38:11;100275.03;;;20.92;100.00
46836;BME280;32573;51.290;6.926;2023-07-13T09:40:46;100270.56;;;20.93;100.00
46836;BME280;32573;51.290;6.926;2023-07-13T09:43:17;100280.28;;;20.97;100.00
46836;BME280;32573;51.290;6.926;2023-07-13T09:45:47;100276.66;;;21.01;100.00
46836;BME280;32573;51.290;6.926;2023-07-13T09:48:18;100270.47;;;21.02;100.00
46836;BME280;32573;51.290;6.926;2023-07-13T09:50:47;100285.53;;;21.01;100.00
46836;BME280;32573;51.290;6.926;2023-07-13T09:53:18;100282.91;;;21.00;100.00
46836;BME280;32573;51.290;6.926;2023-07-13T09:55:48;100282.03;;;20.99;100.00
46836;BME280;32573;51.290;6.926;2023-07-13T09:58:22;100288.22;;;21.00;100.00
46836;BME280;32573;51.290;6.926;2023-07-13T10:00:56;100276.72;;;20.99;100.00
46836;BME280;32573;51.290;6.926;2023-07-13T10:03:28;100282.84;;;21.04;100.00
46836;BME280;32573;51.290;6.926;2023-07-13T10:06:09;100283.66;;;21.09;100.00
46836;BME280;32573;51.290;6.926;2023-07-13T10:08:39;100287.16;;;21.13;100.00
46836;BME280;32573;51.290;6.926;2023-07-13T10:11:12;100298.63;;;21.18;100.00
46836;BME280;32573;51.290;6.926;2023-07-13T10:13:43;100286.19;;;21.20;100.00
46836;BME280;32573;51.290;6.926;2023-07-13T10:16:12;100295.91;;;21.21;100.00
46836;BME280;32573;51.290;6.926;2023-07-13T10:18:46;100287.91;;;21.24;100.00
46836;BME280;32573;51.290;6.926;2023-07-13T10:21:17;100289.59;;;21.28;100.00
46836;BME280;32573;51.290;6.926;2023-07-13T10:24:09;100302.88;;;21.33;100.00
46836;BME280;32573;51.290;6.926;2023-07-13T10:26:45;100279.75;;;21.35;100.00
46836;BME280;32573;51.290;6.926;2023-07-13T10:29:15;100284.19;;;21.39;100.00
46836;BME280;32573;51.290;6.926;2023-07-13T10:31:45;100290.34;;;21.43;100.00
46836;BME280;32573;51.290;6.926;2023-07-13T10:34:15;100293.84;;;21.45;100.00
46836;BME280;32573;51.290;6.926;2023-07-13T10:36:46;100298.28;;;21.46;100.00
46836;BME280;32573;51.290;6.926;2023-07-13T10:39:19;100308.03;;;21.47;100.00
46836;BME280;32573;51.290;6.926;2023-07-13T10:41:52;100289.41;;;21.47;100.00
46836;BME280;32573;51.290;6.926;2023-07-13T10:44:24;100296.47;;;21.48;100.00
46836;BME280;32573;51.290;6.926;2023-07-13T10:46:58;100297.34;;;21.48;100.00
46836;BME280;32573;51.290;6.926;2023-07-13T10:49:30;100291.97;;;21.51;100.00
46836;BME280;32573;51.290;6.926;2023-07-13T10:51:59;100296.34;;;21.57;100.00
46836;BME280;32573;51.290;6.926;2023-07-13T10:54:31;100295.41;;;21.60;100.00
46836;BME280;32573;51.290;6.926;2023-07-13T10:57:17;100305.16;;;21.62;100.00
46836;BME280;32573;51.290;6.926;2023-07-13T10:59:48;100292.69;;;21.64;100.00
46836;BME280;32573;51.290;6.926;2023-07-13T11:02:25;100292.69;;;21.64;100.00
46836;BME280;32573;51.290;6.926;2023-07-13T11:04:57;100309.50;;;21.68;100.00
46836;BME280;32573;51.290;6.926;2023-07-13T11:07:28;100308.56;;;21.70;100.00
46836;BME280;32573;51.290;6.926;2023-07-13T11:09:58;100313.84;;;21.73;100.00
46836;BME280;32573;51.290;6.926;2023-07-13T11:15:12;100308.44;;;21.78;100.00
46836;BME280;32573;51.290;6.926;2023-07-13T11:17:48;100304.03;;;21.75;100.00
46836;BME280;32573;51.290;6.926;2023-07-13T11:20:40;100304.03;;;21.75;100.00
46836;BME280;32573;51.290;6.926;2023-07-13T11:23:30;100308.44;;;21.76;100.00
46836;BME280;32573;51.290;6.926;2023-07-13T11:26:00;100294.28;;;21.74;100.00
46836;BME280;32573;51.290;6.926;2023-07-13T11:28:31;100290.72;;;21.75;100.00
46836;BME280;32573;51.290;6.926;2023-07-13T11:31:13;100284.44;;;21.80;100.00
46836;BME280;32573;51.290;6.926;2023-07-13T11:33:56;100296.78;;;21.85;100.00
46836;BME280;32573;51.290;6.926;2023-07-13T11:36:31;100291.44;;;21.85;100.00
46836;BME280;32573;51.290;6.926;2023-07-13T11:39:10;100283.38;;;21.90;100.00
46836;BME280;32573;51.290;6.926;2023-07-13T11:41:45;100286.84;;;21.95;100.00
46836;BME280;32573;51.290;6.926;2023-07-13T11:44:16;100281.44;;;22.00;100.00
46836;BME280;32573;51.290;6.926;2023-07-13T11:46:47;100272.47;;;22.04;100.00
46836;BME280;32573;51.290;6.926;2023-07-13T11:49:20;100278.59;;;22.09;100.00
46836;BME280;32573;51.290;6.926;2023-07-13T11:51:52;100273.16;;;22.15;100.00
46836;BME280;32573;51.290;6.926;2023-07-13T11:54:27;100277.53;;;22.21;100.00
46836;BME280;32573;51.290;6.926;2023-07-13T11:56:59;100272.13;;;22.27;100.00
46836;BME280;32573;51.290;6.926;2023-07-13T11:59:29;100267.50;;;22.35;100.00
46836;BME280;32573;51.290;6.926;2023-07-13T12:02:00;100258.50;;;22.40;100.00
46836;BME280;32573;51.290;6.926;2023-07-13T12:04:32;100267.28;;;22.47;100.00
46836;BME280;32573;51.290;6.926;2023-07-13T12:07:14;100267.13;;;22.53;100.00
46836;BME280;32573;51.290;6.926;2023-07-13T12:09:44;100280.31;;;22.63;100.00
46836;BME280;32573;51.290;6.926;2023-07-13T12:12:17;100262.41;;;22.68;100.00
46836;BME280;32573;51.290;6.926;2023-07-13T12:14:46;100253.44;;;22.72;100.00
46836;BME280;32573;51.290;6.926;2023-07-13T12:17:16;100264.91;;;22.77;100.00
46836;BME280;32573;51.290;6.926;2023-07-13T12:19:47;100262.16;;;22.80;100.00
46836;BME280;32573;51.290;6.926;2023-07-13T12:22:19;100265.63;;;22.85;100.00
46836;BME280;32573;51.290;6.926;2023-07-13T12:24:51;100268.19;;;22.90;100.00
46836;BME280;32573;51.290;6.926;2023-07-13T12:27:23;100265.56;;;22.88;100.00
46836;BME280;32573;51.290;6.926;2023-07-13T12:29:58;100269.16;;;22.86;100.00
46836;BME280;32573;51.290;6.926;2023-07-13T12:32:27;100272.75;;;22.85;100.00
46836;BME280;32573;51.290;6.926;2023-07-13T12:35:13;100272.78;;;22.83;99.09
46836;BME280;32573;51.290;6.926;2023-07-13T12:37:44;100276.38;;;22.80;99.91
46836;BME280;32573;51.290;6.926;2023-07-13T12:40:15;100278.19;;;22.80;99.96
46836;BME280;32573;51.290;6.926;2023-07-13T12:42:47;100274.66;;;22.79;99.89
46836;BME280;32573;51.290;6.926;2023-07-13T12:45:19;100261.34;;;22.76;99.56
46836;BME280;32573;51.290;6.926;2023-07-13T12:47:50;100264.91;;;22.77;99.10
46836;BME280;32573;51.290;6.926;2023-07-13T12:50:22;100270.25;;;22.77;98.81
46836;BME280;32573;51.290;6.926;2023-07-13T12:52:55;100267.56;;;22.77;98.62
46836;BME280;32573;51.290;6.926;2023-07-13T12:55:25;100266.66;;;22.78;97.97
46836;BME280;32573;51.290;6.926;2023-07-13T12:58:03;100266.63;;;22.79;97.76
46836;BME280;32573;51.290;6.926;2023-07-13T13:00:35;100265.75;;;22.79;97.79
46836;BME280;32573;51.290;6.926;2023-07-13T13:03:07;100267.56;;;22.77;96.53
46836;BME280;32573;51.290;6.926;2023-07-13T13:06:00;100279.19;;;22.74;95.46
46836;BME280;32573;51.290;6.926;2023-07-13T13:08:32;100267.69;;;22.71;96.02